Time;durP1;ratioP1;P1;durP2;ratioP2;P2;SDS_P1;SDS_P2;PMS_P1;PMS_P2;Temp;Humidity;BMP_temperature;BMP_pressure;BME280_temperature;BME280_humidity;BME280_pressure;Samples;Min_cycle;Max_cycle;Signal;HPM_P1;HPM_P2
2022/03/10 00:01:26;;;;;;;12.57;8.85;;;3.60;99.90;;;;;;5049118;28;20135;-60
2022/03/10 00:03:52;;;;;;;17.77;11.10;;;3.60;99.90;;;;;;5053262;28;20210;-59
2022/03/10 00:06:17;;;;;;;11.85;8.52;;;3.50;99.90;;;;;;5036187;28;20936;-59
2022/03/10 00:08:43;;;;;;;16.95;10.15;;;3.40;99.90;;;;;;5054279;28;20130;-60
2022/03/10 00:11:09;;;;;;;10.75;8.57;;;3.40;99.90;;;;;;5053979;28;20565;-61
2022/03/10 00:13:34;;;;;;;17.00;10.00;;;3.40;99.90;;;;;;5052478;28;20045;-61
2022/03/10 00:16:00;;;;;;;13.40;9.55;;;3.40;99.90;;;;;;5035379;28;20495;-61
2022/03/10 00:18:26;;;;;;;17.00;12.57;;;3.40;99.90;;;;;;5053912;28;20546;-61
2022/03/10 00:20:52;;;;;;;21.40;10.27;;;3.30;99.90;;;;;;5052644;28;20052;-61
2022/03/10 00:23:17;;;;;;;15.13;12.05;;;3.10;99.90;;;;;;5053172;28;20128;-59
2022/03/10 00:25:43;;;;;;;15.50;11.48;;;3.00;99.90;;;;;;5053671;28;20041;-60
2022/03/10 00:28:09;;;;;;;19.55;11.20;;;3.00;99.90;;;;;;5034580;28;20059;-60
2022/03/10 00:30:34;;;;;;;14.85;11.05;;;2.90;99.90;;;;;;5053036;28;20793;-60
2022/03/10 00:33:00;;;;;;;13.13;9.88;;;2.80;99.90;;;;;;5052736;28;20054;-60
2022/03/10 00:35:26;;;;;;;15.50;9.75;;;2.80;99.90;;;;;;5052366;28;20040;-61
2022/03/10 00:37:53;;;;;;;13.48;9.55;;;2.80;99.90;;;;;;5053631;28;20135;-59
2022/03/10 00:40:19;;;;;;;10.55;8.13;;;2.90;99.90;;;;;;5055390;28;20040;-60
2022/03/10 00:42:45;;;;;;;15.50;10.85;;;2.90;99.90;;;;;;5054968;28;20580;-60
2022/03/10 00:45:12;;;;;;;13.25;10.10;;;3.00;99.90;;;;;;5038275;28;20577;-61
2022/03/10 00:47:38;;;;;;;12.55;10.20;;;3.00;99.90;;;;;;5033898;28;20051;-60
2022/03/10 00:50:05;;;;;;;18.55;9.52;;;3.10;99.90;;;;;;5035890;28;20110;-60
2022/03/10 00:52:31;;;;;;;14.55;9.32;;;3.00;99.90;;;;;;5018224;28;20053;-60
2022/03/10 00:54:57;;;;;;;14.73;10.48;;;3.00;99.90;;;;;;5035581;28;20511;-60
2022/03/10 00:57:22;;;;;;;11.75;8.93;;;3.10;99.90;;;;;;5036031;28;20139;-61
2022/03/10 00:59:48;;;;;;;12.98;9.50;;;3.00;99.90;;;;;;5037348;28;20123;-61
2022/03/10 01:02:13;;;;;;;12.10;8.25;;;3.00;99.90;;;;;;5021592;28;20061;-60
2022/03/10 01:04:39;;;;;;;11.73;9.10;;;3.00;99.90;;;;;;5017300;28;20053;-60
2022/03/10 01:07:05;;;;;;;15.63;11.25;;;3.00;99.90;;;;;;5035233;28;20052;-60
2022/03/10 01:09:30;;;;;;;15.00;10.63;;;3.00;99.90;;;;;;5035232;28;20045;-61
2022/03/10 01:11:56;;;;;;;13.85;9.07;;;2.90;99.90;;;;;;5042483;28;20148;-61
2022/03/10 01:14:21;;;;;;;16.23;11.65;;;2.80;99.90;;;;;;5038079;28;20055;-60
2022/03/10 01:16:47;;;;;;;14.80;11.70;;;2.90;99.90;;;;;;5048198;28;20568;-61
2022/03/10 01:19:14;;;;;;;13.43;9.10;;;2.90;99.90;;;;;;5050031;28;20126;-61
2022/03/10 01:21:41;;;;;;;15.68;10.23;;;2.80;99.90;;;;;;5055646;28;20139;-61
2022/03/10 01:24:07;;;;;;;12.90;8.40;;;2.80;99.90;;;;;;5017317;28;20594;-61
2022/03/10 01:26:33;;;;;;;14.30;10.15;;;2.70;99.90;;;;;;5040193;28;20127;-61
2022/03/10 01:28:58;;;;;;;15.02;10.75;;;2.60;99.90;;;;;;5055017;28;20869;-61
2022/03/10 01:31:24;;;;;;;15.00;9.95;;;2.50;99.90;;;;;;5054510;28;20045;-61
2022/03/10 01:33:49;;;;;;;16.38;11.23;;;2.30;99.90;;;;;;5055939;28;20059;-61
2022/03/10 01:36:15;;;;;;;16.83;11.73;;;2.00;99.90;;;;;;5055372;28;20044;-61
2022/03/10 01:38:42;;;;;;;17.10;11.15;;;1.80;99.90;;;;;;5054402;28;20076;-59
2022/03/10 01:41:08;;;;;;;17.13;11.88;;;1.50;99.90;;;;;;5036519;28;20083;-62
2022/03/10 01:43:54;;;;;;;14.27;10.27;;;1.40;99.90;;;;;;5055151;28;20052;-60
2022/03/10 01:46:19;;;;;;;13.55;9.68;;;1.40;99.90;;;;;;5055038;28;20044;-63
2022/03/10 01:48:45;;;;;;;17.92;10.63;;;1.40;99.90;;;;;;5055211;28;20591;-60
2022/03/10 01:51:12;;;;;;;12.13;9.15;;;1.50;99.90;;;;;;5054412;28;20067;-60
2022/03/10 01:53:37;;;;;;;14.50;9.60;;;1.60;99.90;;;;;;5054573;28;20071;-60
2022/03/10 01:56:03;;;;;;;14.50;8.98;;;1.60;99.90;;;;;;5054424;28;20051;-60
2022/03/10 01:58:29;;;;;;;14.02;10.70;;;1.70;99.90;;;;;;5054036;28;20045;-60
2022/03/10 02:00:55;;;;;;;11.15;8.48;;;1.70;99.90;;;;;;5054480;28;20056;-60
2022/03/10 02:03:21;;;;;;;11.65;8.45;;;1.80;99.90;;;;;;5054773;28;20161;-60
2022/03/10 02:05:47;;;;;;;14.18;9.73;;;1.80;99.90;;;;;;5054497;28;20159;-61
2022/03/10 02:10:57;;;;;;;11.38;8.85;;;1.40;99.90;;;;;;5055062;28;20052;-61
2022/03/10 02:13:23;;;;;;;16.80;9.20;;;1.80;99.90;;;;;;5054219;28;20041;-61
2022/03/10 02:18:33;;;;;;;14.40;9.90;;;1.90;99.90;;;;;;5055453;28;20059;-61
2022/03/10 02:20:58;;;;;;;12.35;9.02;;;2.00;99.90;;;;;;5054346;28;20048;-59
2022/03/10 02:23:25;;;;;;;14.43;9.23;;;2.10;99.90;;;;;;5054717;28;20103;-61
2022/03/10 02:25:50;;;;;;;12.73;9.05;;;2.10;99.90;;;;;;5053813;28;20412;-61
2022/03/10 02:28:17;;;;;;;12.85;8.70;;;2.10;99.90;;;;;;5053847;28;20051;-61
2022/03/10 02:30:43;;;;;;;14.80;9.68;;;2.10;99.90;;;;;;5035587;28;20080;-61
2022/03/10 02:33:08;;;;;;;12.23;8.40;;;2.20;99.90;;;;;;5053319;28;20099;-61
2022/03/10 02:35:34;;;;;;;12.98;9.23;;;2.20;99.90;;;;;;5036058;28;20407;-61
2022/03/10 02:38:01;;;;;;;13.98;9.10;;;2.20;99.90;;;;;;5056591;28;20083;-60
2022/03/10 02:40:27;;;;;;;15.73;10.77;;;2.20;99.90;;;;;;5057735;28;20943;-61
2022/03/10 02:42:53;;;;;;;23.10;10.73;;;2.10;99.90;;;;;;5058349;28;20048;-61
2022/03/10 02:45:18;;;;;;;12.02;9.10;;;2.00;99.90;;;;;;5058675;28;20206;-61
2022/03/10 02:47:44;;;;;;;17.20;11.10;;;1.80;99.90;;;;;;5058034;28;20048;-61
2022/03/10 02:50:10;;;;;;;14.38;9.43;;;1.70;99.90;;;;;;5058062;28;20040;-61
2022/03/10 02:52:37;;;;;;;15.82;9.80;;;1.70;99.90;;;;;;5050603;28;20056;-61
2022/03/10 02:55:08;;;;;;;14.63;9.23;;;1.90;99.90;;;;;;5057488;28;20059;-61
2022/03/10 02:57:34;;;;;;;14.13;9.57;;;1.50;99.90;;;;;;5057770;28;20129;-61
2022/03/10 03:00:00;;;;;;;15.02;9.20;;;1.70;99.90;;;;;;5050836;28;20049;-59
2022/03/10 03:02:27;;;;;;;17.35;12.80;;;1.70;99.90;;;;;;5056100;28;20131;-60
2022/03/10 03:04:52;;;;;;;14.23;9.45;;;1.60;99.90;;;;;;5057301;28;20048;-60
2022/03/10 03:07:18;;;;;;;12.23;9.05;;;1.70;99.90;;;;;;5057591;28;20760;-59
2022/03/10 03:09:44;;;;;;;16.40;8.73;;;1.70;99.90;;;;;;5033323;28;20049;-62
2022/03/10 03:12:09;;;;;;;11.95;8.27;;;1.70;99.90;;;;;;5056525;28;20161;-61
2022/03/10 03:14:35;;;;;;;13.52;9.40;;;1.70;99.90;;;;;;5057325;28;20044;-59
2022/03/10 03:17:00;;;;;;;17.38;10.43;;;1.80;99.90;;;;;;5056548;28;20101;-59
2022/03/10 03:19:26;;;;;;;13.38;9.50;;;1.70;99.90;;;;;;5057207;28;20950;-60
2022/03/10 03:21:52;;;;;;;13.88;9.90;;;1.60;99.90;;;;;;5057837;28;20118;-60
2022/03/10 03:24:19;;;;;;;14.23;9.75;;;1.50;99.90;;;;;;5057110;28;20040;-60
2022/03/10 03:26:44;;;;;;;15.52;11.77;;;1.50;99.90;;;;;;5057218;28;20510;-61
2022/03/10 03:29:10;;;;;;;18.77;11.27;;;1.40;99.90;;;;;;5038757;28;20134;-60
2022/03/10 03:31:37;;;;;;;13.15;10.65;;;1.30;99.90;;;;;;5035223;28;20933;-60
2022/03/10 03:34:09;;;;;;;16.63;10.25;;;1.20;99.90;;;;;;5039653;28;20617;-60
2022/03/10 03:36:39;;;;;;;14.32;11.27;;;1.10;99.90;;;;;;5054350;28;20045;-59
2022/03/10 03:39:06;;;;;;;14.45;10.30;;;1.00;99.90;;;;;;5057028;28;20051;-61
2022/03/10 03:41:32;;;;;;;15.30;10.75;;;1.00;99.90;;;;;;5056869;28;20060;-61
2022/03/10 03:43:58;;;;;;;18.60;12.50;;;1.00;99.90;;;;;;5056135;28;20071;-61
2022/03/10 03:46:23;;;;;;;15.30;10.45;;;1.10;99.90;;;;;;5056519;28;20044;-61
2022/03/10 03:48:49;;;;;;;16.10;11.60;;;1.10;99.90;;;;;;5039102;28;20127;-60
2022/03/10 03:51:14;;;;;;;13.63;10.13;;;1.20;99.90;;;;;;5056726;28;20040;-60
2022/03/10 03:53:40;;;;;;;13.48;10.15;;;1.20;99.90;;;;;;5056524;28;20067;-61
2022/03/10 03:56:05;;;;;;;14.65;10.73;;;1.20;99.90;;;;;;5056208;28;20047;-61
2022/03/10 03:58:31;;;;;;;16.65;10.10;;;1.20;99.90;;;;;;5038168;28;20092;-61
2022/03/10 04:00:56;;;;;;;13.65;11.02;;;1.20;99.90;;;;;;5049803;28;20660;-59
2022/03/10 04:03:22;;;;;;;14.02;10.45;;;1.30;99.90;;;;;;5038101;28;20938;-61
2022/03/10 04:05:48;;;;;;;13.38;9.30;;;1.30;99.90;;;;;;5037945;28;20056;-60
2022/03/10 04:08:14;;;;;;;15.68;10.93;;;1.30;99.90;;;;;;5057372;28;20060;-60
2022/03/10 04:10:40;;;;;;;13.77;9.50;;;1.30;99.90;;;;;;5056515;28;20119;-61
2022/03/10 04:13:06;;;;;;;16.85;10.43;;;1.30;99.90;;;;;;5055670;28;20080;-60
2022/03/10 04:15:33;;;;;;;17.42;10.32;;;1.30;99.90;;;;;;5056259;28;20132;-60
2022/03/10 04:17:58;;;;;;;12.18;8.98;;;1.40;99.90;;;;;;5056357;28;20139;-60
2022/03/10 04:20:24;;;;;;;13.50;9.10;;;1.40;99.90;;;;;;5055784;28;20762;-60
2022/03/10 04:22:50;;;;;;;15.73;9.95;;;1.50;99.90;;;;;;5056291;28;20036;-60
2022/03/10 04:25:15;;;;;;;13.00;9.23;;;1.50;99.90;;;;;;5056140;28;20044;-60
2022/03/10 04:27:41;;;;;;;15.13;8.52;;;1.60;99.90;;;;;;5055456;28;20472;-60
2022/03/10 04:30:07;;;;;;;11.85;9.02;;;1.70;99.90;;;;;;5056059;28;20124;-60
2022/03/10 04:32:44;;;;;;;15.43;9.10;;;2.90;99.90;;;;;;5055926;28;20088;-60
2022/03/10 04:35:12;;;;;;;15.63;10.45;;;1.80;99.90;;;;;;5056182;28;20048;-60
2022/03/10 04:37:38;;;;;;;13.15;10.27;;;1.80;99.90;;;;;;5056718;28;20141;-60
2022/03/10 04:40:07;;;;;;;16.85;11.15;;;1.80;99.90;;;;;;5055928;28;20758;-61
2022/03/10 04:42:34;;;;;;;14.77;9.32;;;1.70;99.90;;;;;;5056005;28;20088;-60
2022/03/10 04:45:00;;;;;;;18.50;11.80;;;1.70;99.90;;;;;;5055691;28;20480;-60
2022/03/10 04:47:26;;;;;;;15.35;10.35;;;1.60;99.90;;;;;;5054418;28;20041;-59
2022/03/10 04:49:51;;;;;;;17.55;10.80;;;1.60;99.90;;;;;;5055920;28;20052;-61
2022/03/10 04:52:17;;;;;;;16.77;10.68;;;1.50;99.90;;;;;;5038068;28;20135;-59
2022/03/10 04:54:42;;;;;;;13.73;11.20;;;1.40;99.90;;;;;;5055312;28;20135;-61
2022/03/10 04:57:08;;;;;;;15.88;10.52;;;1.30;99.90;;;;;;5055481;28;20048;-61
2022/03/10 04:59:34;;;;;;;17.83;9.75;;;1.30;99.90;;;;;;5055072;28;20052;-61
2022/03/10 05:01:59;;;;;;;17.23;9.98;;;1.20;99.90;;;;;;5055041;28;20109;-62
2022/03/10 05:04:25;;;;;;;16.40;10.35;;;1.10;99.90;;;;;;5055698;28;20261;-60
2022/03/10 05:06:50;;;;;;;15.73;9.95;;;1.10;99.90;;;;;;5055717;28;20084;-60
2022/03/10 05:09:16;;;;;;;21.10;12.00;;;1.00;99.90;;;;;;5055161;28;20400;-60
2022/03/10 05:11:41;;;;;;;20.08;11.23;;;1.00;99.90;;;;;;5055892;28;20067;-60
2022/03/10 05:14:07;;;;;;;14.07;9.57;;;1.00;99.90;;;;;;5055527;28;20059;-60
2022/03/10 05:16:33;;;;;;;11.82;8.73;;;1.10;99.90;;;;;;5055209;28;20045;-61
2022/03/10 05:18:59;;;;;;;15.95;10.75;;;1.20;99.90;;;;;;5055651;28;20049;-60
2022/03/10 05:21:24;;;;;;;12.15;10.50;;;1.20;99.90;;;;;;5037897;28;20914;-60
2022/03/10 05:23:52;;;;;;;11.68;9.43;;;1.20;99.90;;;;;;5054507;28;20219;-60
2022/03/10 05:26:18;;;;;;;15.95;9.98;;;1.10;99.90;;;;;;5055102;28;20139;-60
2022/03/10 05:28:44;;;;;;;12.10;9.23;;;1.10;99.90;;;;;;5054562;28;20105;-60
2022/03/10 05:31:09;;;;;;;13.68;10.18;;;1.10;99.90;;;;;;5054902;28;20056;-61
2022/03/10 05:33:35;;;;;;;14.57;10.18;;;1.20;99.90;;;;;;5055000;28;20072;-60
2022/03/10 05:36:01;;;;;;;22.35;11.20;;;1.20;99.90;;;;;;5055321;28;20377;-60
2022/03/10 05:38:26;;;;;;;19.50;10.57;;;1.20;99.90;;;;;;5055006;28;20135;-59
2022/03/10 05:40:52;;;;;;;14.15;10.38;;;1.10;99.90;;;;;;5037579;28;20058;-60
2022/03/10 05:43:17;;;;;;;16.02;10.82;;;1.00;99.90;;;;;;5054769;28;20122;-60
2022/03/10 05:45:43;;;;;;;14.50;9.50;;;0.90;99.90;;;;;;5055581;28;20040;-60
2022/03/10 05:48:09;;;;;;;18.27;11.02;;;0.80;99.90;;;;;;5054934;28;20052;-60
2022/03/10 05:50:35;;;;;;;15.02;10.82;;;0.70;99.90;;;;;;5054603;28;20041;-59
2022/03/10 05:53:01;;;;;;;14.30;10.25;;;0.70;99.90;;;;;;5055192;28;20080;-60
2022/03/10 05:55:26;;;;;;;12.93;9.80;;;0.80;99.90;;;;;;5054930;28;20047;-60
2022/03/10 05:57:52;;;;;;;14.25;8.68;;;0.80;99.90;;;;;;5053857;28;20048;-60
2022/03/10 06:00:18;;;;;;;11.70;10.10;;;0.80;99.90;;;;;;5052474;28;20048;-60
2022/03/10 06:02:44;;;;;;;13.02;9.45;;;0.90;99.90;;;;;;5052188;28;20844;-60
2022/03/10 06:05:10;;;;;;;13.30;10.13;;;0.90;99.90;;;;;;5051793;28;20153;-60
2022/03/10 06:07:35;;;;;;;12.38;9.45;;;0.90;99.90;;;;;;5035067;28;20539;-60
2022/03/10 06:10:03;;;;;;;18.13;10.40;;;0.90;99.90;;;;;;5030811;28;20053;-61
2022/03/10 06:12:28;;;;;;;18.80;11.75;;;0.90;99.90;;;;;;5034464;28;20821;-60
2022/03/10 06:14:55;;;;;;;17.85;11.57;;;0.80;99.90;;;;;;5017931;28;20052;-59
2022/03/10 06:17:24;;;;;;;14.52;9.45;;;0.80;99.90;;;;;;5036120;28;20649;-60
2022/03/10 06:19:50;;;;;;;13.90;10.32;;;0.70;99.90;;;;;;5049561;28;20111;-60
2022/03/10 06:22:20;;;;;;;16.55;9.25;;;0.70;99.90;;;;;;5055685;28;20064;-59
2022/03/10 06:24:46;;;;;;;14.07;10.18;;;0.70;99.90;;;;;;5054947;28;20420;-60
2022/03/10 06:27:13;;;;;;;12.55;9.23;;;0.80;99.90;;;;;;5023432;28;20066;-60
2022/03/10 06:29:39;;;;;;;15.07;10.25;;;0.90;99.90;;;;;;5035550;28;20080;-60
2022/03/10 06:32:05;;;;;;;14.70;11.10;;;1.00;99.90;;;;;;5035576;28;20156;-61
2022/03/10 06:34:30;;;;;;;17.75;10.88;;;1.10;99.90;;;;;;5035415;28;20097;-61
2022/03/10 06:36:57;;;;;;;16.83;11.30;;;1.20;99.90;;;;;;5035872;28;20052;-60
2022/03/10 06:39:23;;;;;;;12.98;10.07;;;1.30;99.90;;;;;;5034578;28;20044;-61
2022/03/10 06:41:48;;;;;;;17.45;11.65;;;1.30;99.90;;;;;;5017478;28;20052;-59
2022/03/10 06:44:14;;;;;;;17.33;10.10;;;1.40;99.90;;;;;;5048232;28;20044;-60
2022/03/10 06:46:40;;;;;;;19.83;10.77;;;1.40;99.90;;;;;;5054520;28;20060;-61
2022/03/10 06:49:05;;;;;;;13.90;10.05;;;1.50;99.90;;;;;;5055096;28;20051;-61
2022/03/10 06:51:31;;;;;;;14.93;10.20;;;1.50;99.90;;;;;;5055602;28;20060;-61
2022/03/10 06:53:58;;;;;;;18.70;10.35;;;1.50;99.90;;;;;;5054461;28;20043;-61
2022/03/10 06:56:23;;;;;;;18.98;10.75;;;1.50;99.90;;;;;;5055821;28;20044;-62
2022/03/10 06:58:49;;;;;;;13.75;9.85;;;2.30;99.90;;;;;;5055148;28;20127;-60
2022/03/10 07:01:14;;;;;;;15.35;10.07;;;1.60;99.90;;;;;;5054599;28;20129;-61
2022/03/10 07:03:40;;;;;;;20.48;10.50;;;1.70;99.90;;;;;;5054931;28;20049;-60
2022/03/10 07:06:06;;;;;;;15.55;11.00;;;1.80;99.90;;;;;;5054844;28;20551;-59
2022/03/10 07:08:32;;;;;;;15.40;10.60;;;1.90;99.90;;;;;;5054623;28;20076;-61
2022/03/10 07:10:57;;;;;;;15.73;9.35;;;1.90;99.90;;;;;;5055195;28;20139;-61
2022/03/10 07:13:23;;;;;;;13.93;9.60;;;2.10;99.90;;;;;;5036723;28;20083;-63
2022/03/10 07:15:48;;;;;;;15.02;10.48;;;2.10;99.90;;;;;;5036109;28;20060;-63
2022/03/10 07:18:14;;;;;;;14.30;9.30;;;1.50;99.90;;;;;;5054672;28;20094;-63
2022/03/10 07:20:39;;;;;;;16.55;11.35;;;2.30;99.90;;;;;;5055066;28;20086;-60
2022/03/10 07:23:05;;;;;;;16.90;10.23;;;2.40;99.90;;;;;;5053795;28;20052;-61
2022/03/10 07:25:31;;;;;;;12.57;10.20;;;2.50;99.90;;;;;;5055360;28;20514;-60
2022/03/10 07:27:56;;;;;;;15.75;10.30;;;2.60;99.90;;;;;;5054751;28;20040;-60
2022/03/10 07:30:22;;;;;;;17.17;10.45;;;2.70;99.90;;;;;;5054417;28;20560;-60
2022/03/10 07:32:48;;;;;;;15.07;9.52;;;2.80;99.90;;;;;;5036154;28;20105;-61
2022/03/10 07:35:13;;;;;;;14.95;9.77;;;3.00;99.90;;;;;;5054332;28;20064;-59
2022/03/10 07:37:39;;;;;;;13.85;10.35;;;3.10;99.90;;;;;;5053791;28;20057;-61
2022/03/10 07:40:05;;;;;;;14.05;10.43;;;3.10;99.90;;;;;;5054261;28;20055;-61
2022/03/10 07:42:30;;;;;;;16.55;9.70;;;3.20;99.90;;;;;;5035874;28;20052;-61
2022/03/10 07:44:56;;;;;;;15.52;10.55;;;3.30;99.90;;;;;;5032484;28;20059;-59
2022/03/10 07:47:22;;;;;;;13.98;11.32;;;3.40;99.90;;;;;;5033839;28;20640;-61
2022/03/10 07:49:47;;;;;;;14.93;9.70;;;3.50;99.90;;;;;;5033133;28;20101;-60
2022/03/10 07:52:13;;;;;;;18.15;11.65;;;3.60;99.90;;;;;;5040706;28;20122;-59
2022/03/10 07:54:38;;;;;;;15.90;10.18;;;3.70;99.90;;;;;;5045705;28;20056;-59
2022/03/10 07:57:04;;;;;;;14.98;9.88;;;3.90;99.90;;;;;;5035661;28;20732;-62
2022/03/10 07:59:30;;;;;;;16.95;11.73;;;4.00;99.90;;;;;;5052653;28;20044;-60
2022/03/10 08:01:55;;;;;;;15.98;11.13;;;4.10;99.90;;;;;;5053533;28;20044;-60
2022/03/10 08:04:21;;;;;;;12.98;9.43;;;4.30;99.90;;;;;;5054076;28;20155;-61
2022/03/10 08:06:47;;;;;;;18.33;9.27;;;4.40;99.90;;;;;;5053575;28;20080;-60
2022/03/10 08:09:13;;;;;;;15.57;10.98;;;4.60;99.90;;;;;;5052785;28;20047;-60
2022/03/10 08:11:39;;;;;;;16.48;12.75;;;4.70;99.90;;;;;;5052574;28;20044;-60
2022/03/10 08:14:06;;;;;;;14.05;9.98;;;4.80;99.90;;;;;;5035981;28;20155;-60
2022/03/10 08:16:33;;;;;;;11.05;9.32;;;5.00;99.90;;;;;;5037252;28;20111;-60
2022/03/10 08:19:00;;;;;;;16.30;10.95;;;5.20;99.90;;;;;;5015759;28;20048;-60
2022/03/10 08:21:26;;;;;;;13.32;11.02;;;5.40;99.90;;;;;;5041618;28;20067;-60
2022/03/10 08:23:52;;;;;;;14.85;11.75;;;5.60;99.90;;;;;;5052139;28;20163;-60
2022/03/10 08:26:18;;;;;;;16.30;12.30;;;5.80;99.90;;;;;;5046351;28;20079;-60
2022/03/10 08:28:45;;;;;;;20.90;11.38;;;6.00;99.90;;;;;;5021416;28;20049;-60
2022/03/10 08:31:11;;;;;;;15.68;10.40;;;6.20;99.90;;;;;;5037847;28;20737;-60
2022/03/10 08:33:37;;;;;;;18.30;12.05;;;6.30;99.90;;;;;;5051699;28;20055;-60
2022/03/10 08:36:05;;;;;;;15.52;11.25;;;6.60;99.90;;;;;;5052152;28;20059;-60
2022/03/10 08:38:32;;;;;;;15.10;9.95;;;6.80;99.90;;;;;;5042417;28;20048;-60
2022/03/10 08:40:59;;;;;;;19.30;11.93;;;7.00;99.90;;;;;;5023340;28;20049;-60
2022/03/10 08:43:28;;;;;;;14.57;11.05;;;7.30;99.90;;;;;;5053423;28;20052;-60
2022/03/10 08:45:55;;;;;;;17.80;12.30;;;7.70;99.90;;;;;;5037855;28;20057;-60
2022/03/10 08:48:21;;;;;;;14.75;11.23;;;8.20;99.90;;;;;;5044074;28;20049;-61
2022/03/10 08:50:46;;;;;;;15.10;11.50;;;8.90;99.90;;;;;;5037396;28;20047;-60
2022/03/10 08:53:12;;;;;;;17.55;12.23;;;10.00;99.90;;;;;;5015340;28;20052;-60
2022/03/10 08:55:38;;;;;;;16.25;11.40;;;11.20;96.40;;;;;;5032710;28;20037;-60
2022/03/10 08:58:03;;;;;;;13.38;11.60;;;12.30;95.10;;;;;;5032357;28;20736;-61
2022/03/10 09:00:29;;;;;;;15.68;11.43;;;13.30;92.70;;;;;;5038833;28;20036;-60
2022/03/10 09:02:55;;;;;;;11.82;10.43;;;14.00;90.00;;;;;;5052308;28;20149;-61
2022/03/10 09:05:21;;;;;;;16.63;11.35;;;14.50;86.10;;;;;;5041382;28;20059;-60
2022/03/10 09:07:46;;;;;;;17.67;10.90;;;14.90;82.70;;;;;;5034664;28;20045;-60
2022/03/10 09:10:12;;;;;;;17.25;12.52;;;15.40;79.20;;;;;;5016705;28;20057;-61
2022/03/10 09:12:39;;;;;;;12.25;10.02;;;15.80;75.40;;;;;;5031829;28;20048;-61
2022/03/10 09:15:06;;;;;;;14.00;10.82;;;16.00;71.10;;;;;;5031327;28;20132;-60
2022/03/10 09:17:32;;;;;;;17.08;11.90;;;16.00;67.80;;;;;;5038871;28;20068;-63
2022/03/10 09:19:57;;;;;;;18.25;12.65;;;16.30;67.90;;;;;;5049810;28;20048;-61
2022/03/10 09:22:25;;;;;;;18.95;12.40;;;16.50;66.00;;;;;;5032671;28;20052;-60
2022/03/10 09:24:51;;;;;;;15.20;11.10;;;16.80;65.20;;;;;;5032399;28;20127;-60
2022/03/10 09:27:17;;;;;;;18.50;11.48;;;17.00;65.40;;;;;;5039146;28;20041;-61
2022/03/10 09:29:43;;;;;;;16.17;12.38;;;17.30;64.10;;;;;;5041926;28;20044;-61
2022/03/10 09:32:09;;;;;;;16.30;10.77;;;17.30;61.90;;;;;;5046523;28;20610;-61
2022/03/10 09:34:34;;;;;;;13.10;10.70;;;17.70;61.50;;;;;;5043157;28;20112;-61
2022/03/10 09:37:00;;;;;;;18.42;11.55;;;17.70;59.30;;;;;;5016421;28;20048;-60
2022/03/10 09:39:25;;;;;;;14.25;10.43;;;17.80;59.20;;;;;;5032780;28;20040;-61
2022/03/10 09:41:55;;;;;;;13.85;11.32;;;17.90;57.90;;;;;;5046094;28;20158;-60
2022/03/10 09:44:21;;;;;;;16.02;11.15;;;17.80;57.80;;;;;;4693479;28;10000672;-61
2022/03/10 09:46:51;;;;;;;13.20;11.20;;;18.20;57.80;;;;;;5039177;28;20036;-61
2022/03/10 09:49:20;;;;;;;12.93;10.63;;;18.50;57.30;;;;;;5022770;28;20040;-61
2022/03/10 09:51:48;;;;;;;14.73;11.82;;;18.70;57.20;;;;;;5041136;28;20107;-60
2022/03/10 09:54:14;;;;;;;14.82;11.27;;;19.10;56.90;;;;;;5040569;28;20083;-61
2022/03/10 09:56:42;;;;;;;15.48;11.10;;;18.90;55.80;;;;;;5037184;28;20975;-61
2022/03/10 09:59:08;;;;;;;13.55;11.02;;;19.30;55.40;;;;;;5044791;28;20059;-61
2022/03/10 10:01:34;;;;;;;15.15;11.80;;;19.40;55.60;;;;;;5036586;28;20041;-61
2022/03/10 10:04:00;;;;;;;14.40;11.15;;;19.50;55.40;;;;;;5043037;28;20045;-60
2022/03/10 10:06:25;;;;;;;11.20;10.07;;;20.00;54.80;;;;;;5045812;28;20044;-60
2022/03/10 10:08:56;;;;;;;13.68;10.60;;;20.20;54.00;;;;;;5042470;28;20055;-60
2022/03/10 10:11:33;;;;;;;13.70;11.25;;;20.30;52.70;;;;;;5042345;28;20047;-60
2022/03/10 10:13:59;;;;;;;14.43;12.10;;;20.40;52.20;;;;;;5037206;28;20149;-61
2022/03/10 10:16:25;;;;;;;14.40;11.68;;;20.20;52.00;;;;;;5045144;28;20051;-60
2022/03/10 10:18:58;;;;;;;14.45;10.65;;;20.20;51.30;;;;;;5015981;28;20048;-60
2022/03/10 10:21:25;;;;;;;13.65;11.32;;;20.00;50.50;;;;;;5037292;28;20052;-61
2022/03/10 10:23:53;;;;;;;14.93;10.63;;;20.00;50.00;;;;;;5037152;28;20064;-61
2022/03/10 10:26:20;;;;;;;13.23;10.93;;;19.80;49.00;;;;;;5041998;28;20902;-61
2022/03/10 10:28:49;;;;;;;14.50;10.38;;;19.50;48.90;;;;;;5056947;28;20087;-61
2022/03/10 10:31:17;;;;;;;12.32;9.90;;;20.10;48.80;;;;;;5057737;28;20051;-61
2022/03/10 10:34:05;;;;;;;15.07;10.32;;;20.40;48.50;;;;;;5056776;28;20559;-61
2022/03/10 10:36:33;;;;;;;14.43;12.27;;;21.00;48.60;;;;;;5040494;28;20060;-61
2022/03/10 10:39:11;;;;;;;14.52;10.38;;;21.30;47.80;;;;;;5039058;28;20059;-61
2022/03/10 10:41:42;;;;;;;15.15;11.80;;;21.60;47.10;;;;;;5040063;28;20064;-62
2022/03/10 10:44:16;;;;;;;14.40;11.73;;;22.00;47.20;;;;;;5056271;28;20071;-61
2022/03/10 10:46:43;;;;;;;15.35;11.02;;;21.90;45.30;;;;;;5056592;28;20766;-61
2022/03/10 10:49:17;;;;;;;15.85;10.23;;;21.60;45.50;;;;;;5036808;28;20591;-61
2022/03/10 10:51:50;;;;;;;12.32;10.30;;;21.10;45.30;;;;;;5036887;28;20487;-61
2022/03/10 10:54:23;;;;;;;14.63;10.65;;;20.30;45.70;;;;;;5037230;28;20115;-61
2022/03/10 10:56:53;;;;;;;15.32;11.32;;;19.50;46.30;;;;;;5036835;28;20057;-61
2022/03/10 10:59:32;;;;;;;17.48;10.82;;;18.00;46.90;;;;;;5033406;28;20055;-61
2022/03/10 11:02:18;;;;;;;13.23;10.45;;;16.60;47.50;;;;;;5054183;28;20041;-61
2022/03/10 11:04:46;;;;;;;20.98;11.30;;;15.70;47.90;;;;;;5046527;28;20083;-60
2022/03/10 11:07:13;;;;;;;13.32;9.82;;;15.00;48.40;;;;;;5034529;28;20045;-61
2022/03/10 11:09:42;;;;;;;16.13;10.63;;;14.60;49.20;;;;;;5051429;28;20804;-61
2022/03/10 11:12:09;;;;;;;12.60;10.32;;;14.40;49.70;;;;;;5055923;28;20036;-61
2022/03/10 11:14:35;;;;;;;14.88;11.20;;;14.20;50.10;;;;;;5056782;28;20119;-61
2022/03/10 11:17:01;;;;;;;15.25;10.15;;;14.10;50.30;;;;;;5055356;28;20089;-61
2022/03/10 11:19:32;;;;;;;21.52;11.60;;;14.10;50.40;;;;;;5050825;28;20084;-60
2022/03/10 11:22:26;;;;;;;14.65;10.57;;;14.00;50.60;;;;;;5040276;28;20068;-60
2022/03/10 11:25:06;;;;;;;16.30;11.55;;;13.90;50.40;;;;;;4965569;28;20177;-60
2022/03/10 11:27:52;;;;;;;16.40;11.63;;;13.90;50.60;;;;;;5052701;28;20052;-60
2022/03/10 11:30:28;;;;;;;14.88;11.43;;;13.80;50.90;;;;;;5047409;28;20045;-60
2022/03/10 11:33:00;;;;;;;16.95;12.00;;;13.80;51.20;;;;;;5045521;28;20080;-59
2022/03/10 11:35:30;;;;;;;13.52;10.05;;;13.80;51.10;;;;;;5040132;28;20859;-61
2022/03/10 11:37:56;;;;;;;13.48;10.20;;;13.80;51.50;;;;;;5037265;28;20094;-59
2022/03/10 11:40:40;;;;;;;17.27;10.82;;;13.80;51.40;;;;;;5037548;28;20053;-59
2022/03/10 11:43:06;;;;;;;15.25;10.45;;;13.80;51.90;;;;;;5040597;28;20155;-62
2022/03/10 11:45:32;;;;;;;17.30;11.18;;;13.90;51.60;;;;;;5056942;28;20469;-60
2022/03/10 11:48:22;;;;;;;12.95;9.57;;;14.00;51.40;;;;;;5039603;28;20070;-61
2022/03/10 11:50:51;;;;;;;13.55;10.35;;;13.90;50.70;;;;;;5037866;28;20203;-60
2022/03/10 11:53:17;;;;;;;16.20;11.25;;;14.00;50.90;;;;;;5056643;28;20054;-60
2022/03/10 11:55:52;;;;;;;13.88;10.65;;;14.00;51.00;;;;;;5056536;28;20052;-61
2022/03/10 11:58:20;;;;;;;15.15;11.90;;;14.00;51.20;;;;;;5056199;28;20210;-61
2022/03/10 12:00:56;;;;;;;14.60;10.40;;;14.00;51.10;;;;;;5055987;28;20044;-61
2022/03/10 12:03:24;;;;;;;17.92;11.55;;;14.00;50.60;;;;;;5055551;28;20463;-60
2022/03/10 12:06:08;;;;;;;15.00;10.57;;;14.00;51.20;;;;;;5055637;28;20097;-61
2022/03/10 12:08:35;;;;;;;;;;;14.00;51.40;;;;;;5034415;28;20059;-61
2022/03/10 12:11:03;;;;;;;17.13;10.70;;;14.00;51.40;;;;;;5035118;28;19932;-61
2022/03/10 12:13:39;;;;;;;15.98;11.82;;;14.10;51.50;;;;;;5035560;28;20041;-60
2022/03/10 12:16:28;;;;;;;20.23;10.77;;;14.10;52.30;;;;;;5033334;28;20059;-60
2022/03/10 12:18:59;;;;;;;13.55;9.98;;;14.10;51.40;;;;;;5040865;28;20051;-60
2022/03/10 12:21:28;;;;;;;14.90;11.25;;;14.20;51.10;;;;;;5054991;28;20090;-60
2022/03/10 12:24:04;;;;;;;19.80;11.93;;;14.20;51.60;;;;;;5054653;28;20048;-61
2022/03/10 12:26:34;;;;;;;15.10;10.27;;;14.30;51.70;;;;;;5029633;28;20091;-60
2022/03/10 12:29:03;;;;;;;18.23;10.98;;;14.40;51.30;;;;;;5017505;28;20055;-61
2022/03/10 12:31:32;;;;;;;21.13;11.40;;;14.40;51.40;;;;;;5035090;28;20052;-61
2022/03/10 12:34:15;;;;;;;18.27;10.35;;;14.50;51.20;;;;;;5035614;28;20887;-60
2022/03/10 12:36:57;;;;;;;18.70;11.50;;;14.60;50.70;;;;;;5036178;28;20057;-61
2022/03/10 12:39:25;;;;;;;15.02;11.10;;;14.60;50.60;;;;;;5018015;28;20084;-60
2022/03/10 12:42:01;;;;;;;15.90;11.45;;;14.70;50.60;;;;;;5035761;28;20048;-60
2022/03/10 12:44:27;;;;;;;17.73;10.43;;;14.80;50.20;;;;;;5050707;28;20060;-60